This is the latest recevied weather packets stored in our database for station/object KY0TEQ-13. If no packets are shown the sender has not sent any weather packets the latest 10 day(s).
| Time | Temp. | Humidity | Pressure | Rain* | Wind** | Luminosity | Snow |
|---|---|---|---|---|---|---|---|
| 1778160317 | 2.78° C | 33% | 1307.9 hPa | 0 mm | - | 81 W/m² | - |
| 1778160013 | 2.22° C | 35% | 1308 hPa | 0 mm | - | 69 W/m² | - |
| 1778159711 | 1.67° C | 36% | 1307.9 hPa | 0 mm | - | 62 W/m² | - |
| 1778159408 | 1.11° C | 38% | 1307.8 hPa | 0 mm | - | 54 W/m² | - |
| 1778159105 | 0.56° C | 39% | 1307.9 hPa | 0 mm | - | 45 W/m² | - |
| 1778158803 | -0.56° C | 42% | 1307.7 hPa | 0 mm | - | 40 W/m² | - |
| 1778158501 | -1.11° C | 44% | 1307.9 hPa | 0 mm | - | 33 W/m² | - |
| 1778158198 | -1.11° C | 45% | 1307.8 hPa | 0 mm | - | 28 W/m² | - |
| 1778157894 | -2.22° C | 47% | 1307.4 hPa | 0 mm | - | 23 W/m² | - |
| 1778157592 | -2.78° C | 49% | 1307.4 hPa | 0 mm | - | 19 W/m² | - |
| 1778157290 | -3.33° C | 49% | 1307.7 hPa | 0 mm | - | 16 W/m² | - |
| 1778156986 | -3.33° C | 50% | 1307.8 hPa | 0 mm | - | 13 W/m² | - |
| 1778156681 | -2.78° C | 48% | 1307.6 hPa | 0 mm | - | 10 W/m² | - |
| 1778156378 | -1.67° C | 41% | 1307.4 hPa | 0 mm | - | 7 W/m² | - |
| 1778156073 | -1.67° C | 41% | 1307.4 hPa | 0 mm | - | 5 W/m² | - |
| 1778155770 | -2.22° C | 42% | 1307.3 hPa | 0 mm | - | 3 W/m² | - |
| 1778155466 | -1.67° C | 42% | 1307.7 hPa | 0 mm | - | 1 W/m² | - |
| 1778155163 | -2.22° C | 44% | 1307.7 hPa | 0 mm | - | 1 W/m² | - |
| 1778154859 | -2.22° C | 44% | 1307.7 hPa | 0 mm | - | 0 W/m² | - |
| 1778154554 | -2.22° C | 45% | 1307.4 hPa | 0 mm | - | 0 W/m² | - |
| 1778154252 | -2.22° C | 46% | 1307.4 hPa | 0 mm | - | 0 W/m² | - |
| 1778153949 | -1.67° C | 44% | 1307.6 hPa | 0 mm | - | 0 W/m² | - |
| 1778153646 | -2.22° C | 46% | 1307.7 hPa | 0 mm | - | 0 W/m² | - |
| 1778153343 | -1.67° C | 43% | 1307.4 hPa | 0 mm | - | 0 W/m² | - |
| 1778153040 | -1.67° C | 44% | 1307.2 hPa | 0 mm | - | 0 W/m² | - |
* Rain latest hour (hover to see other rain measurements)
** Current wind speed in m/s (hover to see current wind gust speed)